Nouméa, Nouvelle-Calédonie

10:55 NCT le 06 février 2016 (GMT +1100)
La Tontouta | | Change Station
CLOSE
Current Station
Aéroport
Location: La Tontouta,
Altitude: 52 ft
Stations météo à proximité

Alt. 52 ft 22.02 °S, 166.22 °E | Updated 25 minutes ago

Clear
Ciel dégagé
93 ° F
Paraît 102 ° F
N
13
Vent Variable Vent de SO

Aujourd'hui
Haut(e) -- | Bas -- ° F
--% Risque de précip.
Hier
Haut(e) -- | Bas -- ° F
Precip. -- pouce
Pression 29.71 pouce
Visibilité 6.2 Miles terrestres
Nuages
indice de chaleur 102 ° F
Point de rosée 73 ° F
Humidité 52%
Précipitations 0.00 pouce
Profondeur de la couche neigeuse Non disponible.
5:37 AM 6:38 PM
Lune descendante, 9% visible
METAR NWWW 052330Z AUTO 22011KT 190V250 9999 NCD 34/23 Q1006
Pression 29.71 pouce
Visibilité 6.2 Miles terrestres
Nuages
indice de chaleur 102 ° F
Point de rosée 73 ° F
Humidité 52%
Précipitations 0.00 pouce
Profondeur de la couche neigeuse Non disponible.
5:37 AM 6:38 PM
Lune descendante, 9% visible
METAR NWWW 052330Z AUTO 22011KT 190V250 9999 NCD 34/23 Q1006

10-Day Weather Forecast

No radar image for this location.
×

Almanac

Astronomie

Feb. 06, 2016 Lever Coucher
Temps réel
Crépuscule civil
Crépuscule nautique
Crépuscule astronomique
Lune
Durée de lumière visible
Longueur du jour
Tomorrow will be .
, % of the Moon is Illuminated

Extrêmes aujourd'hui

Country Highs Country Lows

Community

WunderPhotos

Upload Photos

1,890,880 Photos téléchargées !

WunderBlog® & News

Nearby

Qualité de l'air

  Qualité de l'air Indice de la qualité de l'air Polluant
Not available.

Épaisseur de neige

Station Depth Altitude

Activité sismique

Ville Distance Mag. Time & Date
Minimum magnitude displayed is 2.5.

Températures des eaux côtières

Lieu Température

Stations

Stations météo à proximité

Emplacement de la station Température Refroidissement éolien Point de rosée Humidité Vent Precip. Alt. Mise à jour Type